Time;durP1;ratioP1;P1;durP2;ratioP2;P2;SDS_P1;SDS_P2;PMS_P1;PMS_P2;Temp;Humidity;BMP_temperature;BMP_pressure;BME280_temperature;BME280_humidity;BME280_pressure;Samples;Min_cycle;Max_cycle;Signal;HPM_P1;HPM_P2
2021/12/04 00:00:08;;;;;;;;;;;20.90;39.30;;;;;;696584;28;1959;-80
2021/12/04 00:00:29;;;;;;;;;;;20.80;39.30;;;;;;696591;28;1361;-81
2021/12/04 00:00:52;;;;;;;;;;;20.80;39.30;;;;;;693710;28;1157;-82
2021/12/04 00:01:16;;;;;;;;;;;20.90;39.30;;;;;;693701;28;849;-79
2021/12/04 00:01:40;;;;;;;;;;;20.90;39.30;;;;;;693754;28;1267;-82
2021/12/04 00:02:04;;;;;;;;;;;20.80;39.30;;;;;;693843;28;906;-79
2021/12/04 00:02:25;;;;;;;;;;;20.80;39.20;;;;;;693701;28;854;-80
2021/12/04 00:02:46;;;;;;;;;;;20.90;39.30;;;;;;693725;28;823;-79
2021/12/04 00:03:07;;;;;;;;;;;20.80;39.20;;;;;;693868;28;787;-78
2021/12/04 00:03:27;;;;;;;;;;;20.90;39.30;;;;;;695211;28;1504;-78
2021/12/04 00:03:48;;;;;;;;;;;20.80;39.20;;;;;;698059;28;1328;-79
2021/12/04 00:04:08;;;;;;;;;;;20.80;39.10;;;;;;699433;28;932;-79
2021/12/04 00:04:34;;;;;;;;;;;20.80;39.10;;;;;;699425;28;890;-79
2021/12/04 00:04:56;;;;;;;;;;;20.90;39.30;;;;;;699432;28;826;-78
2021/12/04 00:05:18;;;;;;;;;;;20.80;39.20;;;;;;696338;28;1355;-77
2021/12/04 00:05:43;;;;;;;;;;;20.80;39.20;;;;;;696592;28;810;-78
2021/12/04 00:06:07;;;;;;;;;;;20.80;39.10;;;;;;696601;28;803;-79
2021/12/04 00:06:31;;;;;;;;;;;20.80;39.10;;;;;;696400;28;806;-78
2021/12/04 00:06:52;;;;;;;;;;;20.80;39.10;;;;;;696558;28;900;-78
2021/12/04 00:07:12;;;;;;;;;;;20.80;39.10;;;;;;698706;28;842;-78
2021/12/04 00:07:35;;;;;;;;;;;20.80;39.10;;;;;;699493;28;917;-77
2021/12/04 00:07:56;;;;;;;;;;;20.80;39.10;;;;;;699337;28;922;-76
2021/12/04 00:08:17;;;;;;;;;;;20.80;39.10;;;;;;699388;28;893;-78
2021/12/04 00:08:38;;;;;;;;;;;20.80;39.20;;;;;;695701;28;1260;-78
2021/12/04 00:09:04;;;;;;;;;;;20.80;39.20;;;;;;696393;28;877;-78
2021/12/04 00:09:24;;;;;;;;;;;20.80;39.20;;;;;;696481;28;854;-77
2021/12/04 00:09:46;;;;;;;;;;;20.80;39.10;;;;;;696447;28;913;-78
2021/12/04 00:10:08;;;;;;;;;;;20.70;39.00;;;;;;696654;28;846;-79
2021/12/04 00:10:30;;;;;;;;;;;20.80;39.10;;;;;;697866;28;857;-79
2021/12/04 00:10:51;;;;;;;;;;;20.80;39.10;;;;;;699495;28;826;-79
2021/12/04 00:11:12;;;;;;;;;;;20.80;39.00;;;;;;699412;28;912;-78
2021/12/04 00:11:36;;;;;;;;;;;20.80;39.00;;;;;;699523;28;822;-78
2021/12/04 00:12:00;;;;;;;;;;;20.80;39.00;;;;;;699551;28;522;-78
2021/12/04 00:12:21;;;;;;;;;;;20.80;39.10;;;;;;699367;28;892;-79
2021/12/04 00:12:41;;;;;;;;;;;20.80;39.20;;;;;;699402;28;879;-80
2021/12/04 00:13:02;;;;;;;;;;;20.80;39.10;;;;;;699486;28;948;-79
2021/12/04 00:13:22;;;;;;;;;;;20.80;39.10;;;;;;699484;28;964;-77
2021/12/04 00:13:43;;;;;;;;;;;20.80;39.10;;;;;;699405;28;841;-77
2021/12/04 00:14:03;;;;;;;;;;;20.80;39.10;;;;;;699377;28;835;-77
2021/12/04 00:14:24;;;;;;;;;;;20.80;39.10;;;;;;699389;28;810;-76
2021/12/04 00:14:45;;;;;;;;;;;20.80;39.10;;;;;;699426;28;822;-78
2021/12/04 00:15:06;;;;;;;;;;;20.80;39.00;;;;;;699794;28;830;-79
2021/12/04 00:15:27;;;;;;;;;;;20.80;39.10;;;;;;699435;28;806;-78
2021/12/04 00:15:47;;;;;;;;;;;20.80;39.10;;;;;;699383;28;867;-77
2021/12/04 00:16:08;;;;;;;;;;;20.80;39.00;;;;;;699617;28;874;-79
2021/12/04 00:16:28;;;;;;;;;;;20.80;39.00;;;;;;699429;28;782;-77
2021/12/04 00:16:49;;;;;;;;;;;20.80;39.10;;;;;;696225;28;1125;-79
2021/12/04 00:17:10;;;;;;;;;;;20.80;39.00;;;;;;696306;28;1237;-80
2021/12/04 00:17:30;;;;;;;;;;;20.80;39.00;;;;;;693849;28;917;-79
2021/12/04 00:17:51;;;;;;;;;;;20.80;39.00;;;;;;693648;28;1169;-77
2021/12/04 00:18:12;;;;;;;;;;;20.80;39.10;;;;;;693755;28;822;-77
2021/12/04 00:18:32;;;;;;;;;;;20.80;39.10;;;;;;693811;28;843;-77
2021/12/04 00:18:53;;;;;;;;;;;20.70;39.10;;;;;;693607;28;830;-76
2021/12/04 00:19:13;;;;;;;;;;;20.80;39.10;;;;;;693827;28;494;-77
2021/12/04 00:19:34;;;;;;;;;;;20.80;39.10;;;;;;694124;28;917;-76
2021/12/04 00:19:55;;;;;;;;;;;20.70;39.00;;;;;;693544;28;1891;-78
2021/12/04 00:20:15;;;;;;;;;;;20.80;39.00;;;;;;693778;28;936;-78
2021/12/04 00:20:38;;;;;;;;;;;20.80;39.00;;;;;;690925;28;1320;-78
2021/12/04 00:20:59;;;;;;;;;;;20.80;39.00;;;;;;690927;28;577;-80
2021/12/04 00:21:19;;;;;;;;;;;20.80;39.00;;;;;;690956;28;918;-79
2021/12/04 00:21:40;;;;;;;;;;;20.70;39.10;;;;;;691671;28;958;-78
2021/12/04 00:22:01;;;;;;;;;;;20.80;39.10;;;;;;693794;28;878;-79
2021/12/04 00:22:21;;;;;;;;;;;20.70;39.00;;;;;;694528;28;897;-78
2021/12/04 00:22:42;;;;;;;;;;;20.80;39.10;;;;;;696668;28;906;-77
2021/12/04 00:23:03;;;;;;;;;;;20.80;39.00;;;;;;696584;28;1493;-79
2021/12/04 00:23:23;;;;;;;;;;;20.80;39.00;;;;;;693775;28;1525;-79
2021/12/04 00:23:44;;;;;;;;;;;20.80;39.10;;;;;;693829;28;827;-79
2021/12/04 00:24:04;;;;;;;;;;;20.80;39.10;;;;;;691076;28;1236;-79
2021/12/04 00:24:26;;;;;;;;;;;20.80;39.00;;;;;;690958;28;981;-80
2021/12/04 00:24:46;;;;;;;;;;;20.80;39.00;;;;;;691021;28;791;-79
2021/12/04 00:25:07;;;;;;;;;;;20.70;39.00;;;;;;691120;28;927;-79
2021/12/04 00:25:28;;;;;;;;;;;20.80;39.10;;;;;;691048;28;818;-78
2021/12/04 00:25:49;;;;;;;;;;;20.70;39.00;;;;;;691490;28;807;-78
2021/12/04 00:26:09;;;;;;;;;;;20.80;39.20;;;;;;695557;28;1545;-78
2021/12/04 00:26:30;;;;;;;;;;;20.80;39.10;;;;;;696638;28;1225;-77
2021/12/04 00:26:51;;;;;;;;;;;20.80;39.10;;;;;;695407;28;1347;-78
2021/12/04 00:27:11;;;;;;;;;;;20.80;39.10;;;;;;696356;28;1354;-79
2021/12/04 00:27:32;;;;;;;;;;;20.80;39.00;;;;;;696517;28;941;-80
2021/12/04 00:27:53;;;;;;;;;;;20.70;39.00;;;;;;696389;28;853;-79
2021/12/04 00:28:13;;;;;;;;;;;20.70;39.00;;;;;;696587;28;822;-79
2021/12/04 00:28:34;;;;;;;;;;;20.80;39.00;;;;;;696835;28;822;-78
2021/12/04 00:28:54;;;;;;;;;;;20.70;39.00;;;;;;699303;28;954;-79
2021/12/04 00:29:15;;;;;;;;;;;20.80;39.10;;;;;;695705;28;1238;-80
2021/12/04 00:29:35;;;;;;;;;;;20.70;39.00;;;;;;696557;28;787;-79
2021/12/04 00:29:58;;;;;;;;;;;20.70;39.10;;;;;;696416;28;806;-80
2021/12/04 00:30:18;;;;;;;;;;;20.70;39.10;;;;;;695540;28;1254;-81
2021/12/04 00:30:39;;;;;;;;;;;20.70;39.00;;;;;;696621;28;822;-79
2021/12/04 00:31:04;;;;;;;;;;;20.70;39.00;;;;;;696390;28;897;-79
2021/12/04 00:31:26;;;;;;;;;;;20.70;39.00;;;;;;696287;28;1025;-79
2021/12/04 00:31:54;;;;;;;;;;;20.70;39.00;;;;;;696398;28;925;-79
2021/12/04 00:32:22;;;;;;;;;;;20.70;39.00;;;;;;698728;28;876;-79
2021/12/04 00:32:52;;;;;;;;;;;20.70;39.00;;;;;;699387;28;912;-78
2021/12/04 00:33:18;;;;;;;;;;;20.70;39.00;;;;;;699408;28;885;-79
2021/12/04 00:33:42;;;;;;;;;;;20.70;39.00;;;;;;699461;28;904;-78
2021/12/04 00:34:03;;;;;;;;;;;20.70;39.00;;;;;;699450;28;897;-78
2021/12/04 00:34:26;;;;;;;;;;;20.70;39.00;;;;;;699404;28;818;-79
2021/12/04 00:34:53;;;;;;;;;;;20.70;39.00;;;;;;696303;28;1248;-79
2021/12/04 00:35:32;;;;;;;;;;;20.70;39.10;;;;;;696477;28;825;-78
2021/12/04 00:35:58;;;;;;;;;;;20.70;39.10;;;;;;696406;28;841;-78
2021/12/04 00:37:12;;;;;;;;;;;20.70;39.00;;;;;;699367;28;801;-79
2021/12/04 00:49:10;;;;;;;;;;;20.60;39.00;;;;;;685859;28;636;-80
2021/12/04 00:49:31;;;;;;;;;;;20.60;39.00;;;;;;686121;28;861;-81
2021/12/04 00:49:52;;;;;;;;;;;20.60;38.90;;;;;;685932;28;823;-80
2021/12/04 00:50:13;;;;;;;;;;;20.60;38.90;;;;;;685959;28;941;-80
2021/12/04 00:50:33;;;;;;;;;;;20.60;38.90;;;;;;686042;28;795;-82
2021/12/04 00:50:54;;;;;;;;;;;20.60;39.00;;;;;;685909;28;1213;-81
2021/12/04 00:51:14;;;;;;;;;;;20.60;39.00;;;;;;685909;28;938;-80
2021/12/04 00:51:36;;;;;;;;;;;20.60;38.90;;;;;;686061;28;811;-81
2021/12/04 00:51:58;;;;;;;;;;;20.60;39.00;;;;;;685940;28;1096;-81
2021/12/04 00:52:18;;;;;;;;;;;20.60;39.00;;;;;;686024;28;799;-81
2021/12/04 00:52:39;;;;;;;;;;;20.60;38.90;;;;;;686059;28;823;-80
2021/12/04 00:53:00;;;;;;;;;;;20.60;38.80;;;;;;685936;28;857;-80
2021/12/04 00:53:20;;;;;;;;;;;20.60;38.80;;;;;;686081;28;858;-80
2021/12/04 00:53:41;;;;;;;;;;;20.60;38.90;;;;;;685910;28;803;-81
2021/12/04 00:54:01;;;;;;;;;;;20.60;38.90;;;;;;686017;28;927;-81
2021/12/04 00:54:23;;;;;;;;;;;20.60;38.80;;;;;;685916;28;779;-81
2021/12/04 00:54:45;;;;;;;;;;;20.60;38.80;;;;;;685944;28;827;-81
2021/12/04 00:55:06;;;;;;;;;;;20.60;38.70;;;;;;683515;29;1354;-81
2021/12/04 00:55:26;;;;;;;;;;;20.60;38.70;;;;;;683219;29;1101;-82
2021/12/04 00:55:47;;;;;;;;;;;20.60;38.80;;;;;;683287;29;803;-81
2021/12/04 00:56:08;;;;;;;;;;;20.60;38.60;;;;;;683440;29;946;-81
2021/12/04 00:56:28;;;;;;;;;;;20.60;38.60;;;;;;683282;29;875;-81
2021/12/04 00:56:49;;;;;;;;;;;20.60;38.60;;;;;;683478;28;784;-82
2021/12/04 00:57:09;;;;;;;;;;;20.60;38.80;;;;;;686018;28;914;-81
2021/12/04 00:57:30;;;;;;;;;;;20.60;38.80;;;;;;683309;29;1098;-81
2021/12/04 00:57:52;;;;;;;;;;;20.60;38.60;;;;;;683343;29;815;-81
2021/12/04 00:58:13;;;;;;;;;;;20.60;38.80;;;;;;683259;29;1148;-81
2021/12/04 00:58:33;;;;;;;;;;;20.60;38.70;;;;;;683420;29;784;-80
2021/12/04 00:58:54;;;;;;;;;;;20.60;38.70;;;;;;683217;29;863;-81
2021/12/04 00:59:15;;;;;;;;;;;20.60;38.70;;;;;;683673;28;866;-81
2021/12/04 00:59:35;;;;;;;;;;;20.60;38.70;;;;;;686072;28;863;-81
2021/12/04 00:59:56;;;;;;;;;;;20.60;38.70;;;;;;685823;28;1962;-80
2021/12/04 01:00:16;;;;;;;;;;;20.60;38.70;;;;;;685996;28;870;-81
2021/12/04 01:00:38;;;;;;;;;;;20.60;38.60;;;;;;686047;28;862;-81
2021/12/04 01:00:59;;;;;;;;;;;20.60;38.70;;;;;;685900;28;803;-81
2021/12/04 01:01:20;;;;;;;;;;;20.60;38.70;;;;;;685749;28;1141;-80
2021/12/04 01:01:41;;;;;;;;;;;20.60;38.60;;;;;;685888;28;834;-82
2021/12/04 01:02:02;;;;;;;;;;;20.60;38.60;;;;;;686057;28;803;-80
2021/12/04 01:02:23;;;;;;;;;;;20.60;38.70;;;;;;685924;28;867;-81
2021/12/04 01:02:43;;;;;;;;;;;20.60;38.60;;;;;;685916;28;850;-80
2021/12/04 01:03:04;;;;;;;;;;;20.60;38.70;;;;;;686009;28;799;-81
2021/12/04 01:03:25;;;;;;;;;;;20.60;38.70;;;;;;685939;28;910;-81
2021/12/04 01:03:46;;;;;;;;;;;20.60;38.70;;;;;;683150;29;1452;-80
2021/12/04 01:04:10;;;;;;;;;;;20.60;38.60;;;;;;683257;29;883;-81
2021/12/04 01:04:31;;;;;;;;;;;20.60;38.60;;;;;;683398;29;796;-80
2021/12/04 01:04:53;;;;;;;;;;;20.60;38.60;;;;;;683186;29;961;-81
2021/12/04 01:05:13;;;;;;;;;;;20.60;38.60;;;;;;683169;29;886;-80
2021/12/04 01:05:34;;;;;;;;;;;20.60;38.50;;;;;;684559;28;783;-80
2021/12/04 01:05:54;;;;;;;;;;;20.60;38.50;;;;;;683145;29;1279;-80
2021/12/04 01:06:15;;;;;;;;;;;20.60;38.60;;;;;;683247;29;918;-80
2021/12/04 01:06:36;;;;;;;;;;;20.60;38.60;;;;;;683302;29;1317;-80
2021/12/04 01:06:56;;;;;;;;;;;20.60;38.60;;;;;;683156;29;1305;-82
2021/12/04 01:07:17;;;;;;;;;;;20.60;38.60;;;;;;683207;29;827;-81
2021/12/04 01:07:38;;;;;;;;;;;20.60;38.50;;;;;;683329;29;823;-81
2021/12/04 01:07:58;;;;;;;;;;;20.60;38.50;;;;;;683278;29;835;-80
2021/12/04 01:08:19;;;;;;;;;;;20.60;38.50;;;;;;683249;29;1128;-80
2021/12/04 01:08:39;;;;;;;;;;;20.60;38.50;;;;;;681861;29;1679;-81
2021/12/04 01:09:00;;;;;;;;;;;20.60;38.60;;;;;;683202;29;1464;-80
2021/12/04 01:09:21;;;;;;;;;;;20.60;38.50;;;;;;683138;29;1537;-81
2021/12/04 01:09:43;;;;;;;;;;;20.60;38.50;;;;;;683343;29;780;-81
2021/12/04 01:10:06;;;;;;;;;;;20.60;38.50;;;;;;683334;28;804;-80
2021/12/04 01:10:27;;;;;;;;;;;20.60;38.60;;;;;;683287;29;819;-81
2021/12/04 01:10:47;;;;;;;;;;;20.60;38.60;;;;;;683200;29;1459;-81
2021/12/04 01:11:08;;;;;;;;;;;20.60;38.60;;;;;;683413;29;1070;-81
2021/12/04 01:11:29;;;;;;;;;;;20.50;38.60;;;;;;683121;29;784;-81
2021/12/04 01:11:50;;;;;;;;;;;20.50;38.50;;;;;;680539;29;871;-81
2021/12/04 01:12:10;;;;;;;;;;;20.60;38.50;;;;;;680617;29;1142;-81
2021/12/04 01:12:31;;;;;;;;;;;20.60;38.50;;;;;;680724;29;795;-80
2021/12/04 01:12:52;;;;;;;;;;;20.60;38.50;;;;;;680654;29;788;-80
2021/12/04 01:13:13;;;;;;;;;;;20.60;38.50;;;;;;680617;29;811;-80
2021/12/04 01:13:34;;;;;;;;;;;20.60;38.50;;;;;;681150;29;853;-81
2021/12/04 01:13:55;;;;;;;;;;;20.50;38.50;;;;;;683227;29;843;-81
2021/12/04 01:14:17;;;;;;;;;;;20.50;38.50;;;;;;683313;29;800;-80
2021/12/04 01:14:37;;;;;;;;;;;20.60;38.50;;;;;;682864;28;1388;-81
2021/12/04 01:14:58;;;;;;;;;;;20.60;38.50;;;;;;680576;29;903;-80
2021/12/04 01:15:19;;;;;;;;;;;20.60;38.60;;;;;;680565;29;961;-81
2021/12/04 01:15:41;;;;;;;;;;;20.50;38.50;;;;;;680629;29;946;-80
2021/12/04 01:16:01;;;;;;;;;;;20.60;38.50;;;;;;680831;29;906;-79
2021/12/04 01:16:22;;;;;;;;;;;20.50;38.60;;;;;;680577;29;1100;-79
2021/12/04 01:16:43;;;;;;;;;;;20.60;38.50;;;;;;680506;29;974;-79
2021/12/04 01:17:03;;;;;;;;;;;20.60;38.60;;;;;;680739;29;871;-79
2021/12/04 01:17:24;;;;;;;;;;;20.50;38.50;;;;;;680615;29;836;-80
2021/12/04 01:17:45;;;;;;;;;;;20.50;38.50;;;;;;691598;28;1151;-80
2021/12/04 01:18:05;;;;;;;;;;;20.50;38.50;;;;;;694259;28;833;-79
2021/12/04 01:18:26;;;;;;;;;;;20.60;38.50;;;;;;694024;28;775;-80
2021/12/04 01:18:46;;;;;;;;;;;20.50;38.50;;;;;;691655;28;778;-80
2021/12/04 01:19:07;;;;;;;;;;;20.50;38.60;;;;;;691645;28;886;-80
2021/12/04 01:19:29;;;;;;;;;;;20.50;38.50;;;;;;691493;28;850;-80
2021/12/04 01:19:49;;;;;;;;;;;20.50;38.50;;;;;;691552;28;798;-79
2021/12/04 01:20:10;;;;;;;;;;;20.50;38.50;;;;;;691628;28;1882;-81
2021/12/04 01:20:31;;;;;;;;;;;20.50;38.50;;;;;;691667;28;775;-79
2021/12/04 01:20:51;;;;;;;;;;;20.50;38.50;;;;;;694004;28;1165;-79
2021/12/04 01:21:12;;;;;;;;;;;20.50;38.50;;;;;;694157;28;932;-81
2021/12/04 01:21:33;;;;;;;;;;;20.50;38.50;;;;;;694204;28;806;-80
2021/12/04 01:21:54;;;;;;;;;;;20.50;38.50;;;;;;694079;28;846;-81
2021/12/04 01:22:14;;;;;;;;;;;20.50;38.50;;;;;;694091;28;873;-80
2021/12/04 01:22:35;;;;;;;;;;;20.50;38.50;;;;;;693955;28;849;-81
2021/12/04 01:22:55;;;;;;;;;;;20.50;38.50;;;;;;691663;28;807;-81
2021/12/04 01:23:16;;;;;;;;;;;20.50;38.50;;;;;;691508;28;941;-80
2021/12/04 01:23:37;;;;;;;;;;;20.50;38.50;;;;;;691659;28;803;-80
2021/12/04 01:23:57;;;;;;;;;;;20.50;38.50;;;;;;691629;28;1008;-81
2021/12/04 01:24:18;;;;;;;;;;;20.50;38.50;;;;;;691603;28;922;-81
2021/12/04 01:24:39;;;;;;;;;;;20.50;38.30;;;;;;694138;28;1371;-81
2021/12/04 01:25:01;;;;;;;;;;;20.50;38.40;;;;;;694140;28;905;-80
2021/12/04 01:25:21;;;;;;;;;;;20.50;38.40;;;;;;694160;28;807;-80
2021/12/04 01:25:42;;;;;;;;;;;20.50;38.40;;;;;;694020;28;878;-80
2021/12/04 01:26:03;;;;;;;;;;;20.50;38.30;;;;;;694180;28;798;-80
2021/12/04 01:26:24;;;;;;;;;;;20.50;38.40;;;;;;691276;28;1431;-80
2021/12/04 01:26:45;;;;;;;;;;;20.50;38.30;;;;;;691386;28;1284;-82
2021/12/04 01:27:08;;;;;;;;;;;20.50;38.40;;;;;;694254;28;869;-81
2021/12/04 01:27:28;;;;;;;;;;;20.50;38.40;;;;;;694050;28;778;-80
2021/12/04 01:27:49;;;;;;;;;;;20.50;38.40;;;;;;694030;28;782;-80
2021/12/04 01:28:10;;;;;;;;;;;20.50;38.30;;;;;;694243;28;810;-79
2021/12/04 01:28:30;;;;;;;;;;;20.50;38.40;;;;;;694142;28;1626;-80
2021/12/04 01:28:51;;;;;;;;;;;20.50;38.40;;;;;;694009;28;969;-81
2021/12/04 01:29:12;;;;;;;;;;;20.50;38.40;;;;;;694105;28;798;-80
2021/12/04 01:29:32;;;;;;;;;;;20.50;38.40;;;;;;694239;28;850;-81
2021/12/04 01:29:53;;;;;;;;;;;20.50;38.30;;;;;;694115;28;799;-79
2021/12/04 01:30:13;;;;;;;;;;;20.50;38.40;;;;;;694076;28;914;-80
2021/12/04 01:30:34;;;;;;;;;;;20.50;38.30;;;;;;694384;28;815;-80
2021/12/04 01:30:55;;;;;;;;;;;20.50;38.40;;;;;;694286;28;814;-80
2021/12/04 01:31:15;;;;;;;;;;;20.50;38.30;;;;;;694248;28;854;-79
2021/12/04 01:31:36;;;;;;;;;;;20.50;38.40;;;;;;694451;28;826;-80
2021/12/04 01:31:56;;;;;;;;;;;20.50;38.40;;;;;;694292;28;972;-81
2021/12/04 01:32:17;;;;;;;;;;;20.50;38.50;;;;;;694270;28;866;-81
2021/12/04 01:32:37;;;;;;;;;;;20.50;38.50;;;;;;694363;28;891;-80
2021/12/04 01:32:58;;;;;;;;;;;20.50;38.40;;;;;;694156;28;957;-81
2021/12/04 01:33:19;;;;;;;;;;;20.50;38.40;;;;;;694331;28;882;-80
2021/12/04 01:33:39;;;;;;;;;;;20.50;38.40;;;;;;694324;28;787;-80
2021/12/04 01:34:00;;;;;;;;;;;20.50;38.40;;;;;;694214;28;767;-80
2021/12/04 01:34:20;;;;;;;;;;;20.50;38.30;;;;;;694150;28;873;-80
2021/12/04 01:34:41;;;;;;;;;;;20.50;38.30;;;;;;694284;28;1037;-81
2021/12/04 01:35:02;;;;;;;;;;;20.50;38.40;;;;;;694378;28;802;-80
2021/12/04 01:35:22;;;;;;;;;;;20.50;38.40;;;;;;694207;28;976;-81
2021/12/04 01:35:43;;;;;;;;;;;20.50;38.50;;;;;;694222;28;791;-81
2021/12/04 01:36:04;;;;;;;;;;;20.50;38.40;;;;;;694456;28;957;-80
2021/12/04 01:36:24;;;;;;;;;;;20.50;38.30;;;;;;694215;28;949;-81
2021/12/04 01:36:45;;;;;;;;;;;20.50;38.30;;;;;;694202;28;916;-80
2021/12/04 01:37:05;;;;;;;;;;;20.50;38.30;;;;;;694334;28;909;-80
2021/12/04 01:37:26;;;;;;;;;;;20.50;38.40;;;;;;694341;28;735;-81
2021/12/04 01:37:46;;;;;;;;;;;20.50;38.50;;;;;;694162;28;854;-80
2021/12/04 01:38:07;;;;;;;;;;;20.50;38.40;;;;;;694383;28;830;-81
2021/12/04 01:38:28;;;;;;;;;;;20.50;38.50;;;;;;694299;28;837;-81
2021/12/04 01:38:48;;;;;;;;;;;20.50;38.50;;;;;;694148;28;889;-81
2021/12/04 01:39:10;;;;;;;;;;;20.50;38.50;;;;;;694380;28;775;-80
2021/12/04 01:39:31;;;;;;;;;;;20.50;38.40;;;;;;695475;28;1288;-80
2021/12/04 01:39:52;;;;;;;;;;;20.50;38.50;;;;;;696952;28;909;-80
2021/12/04 01:40:12;;;;;;;;;;;20.50;38.40;;;;;;696932;28;1960;-79
2021/12/04 01:40:33;;;;;;;;;;;20.50;38.40;;;;;;697140;28;917;-80
2021/12/04 01:40:54;;;;;;;;;;;20.50;38.40;;;;;;696905;28;779;-79
2021/12/04 01:41:15;;;;;;;;;;;20.50;38.40;;;;;;696957;28;826;-79
2021/12/04 01:41:36;;;;;;;;;;;20.50;38.30;;;;;;694073;28;1144;-81
2021/12/04 01:41:57;;;;;;;;;;;20.40;38.30;;;;;;694000;28;921;-81
2021/12/04 01:42:18;;;;;;;;;;;20.40;38.30;;;;;;694062;28;830;-82
2021/12/04 01:42:39;;;;;;;;;;;20.40;38.30;;;;;;691456;28;855;-81
2021/12/04 01:42:59;;;;;;;;;;;20.50;38.30;;;;;;691229;28;913;-78
2021/12/04 01:43:20;;;;;;;;;;;20.50;38.30;;;;;;691659;28;882;-79
2021/12/04 01:43:41;;;;;;;;;;;20.40;38.30;;;;;;693998;28;885;-78
2021/12/04 01:44:03;;;;;;;;;;;20.50;38.40;;;;;;694185;28;826;-80
2021/12/04 01:44:23;;;;;;;;;;;20.50;38.40;;;;;;694610;28;850;-79
2021/12/04 01:44:46;;;;;;;;;;;20.40;38.30;;;;;;696963;28;814;-79
2021/12/04 01:45:07;;;;;;;;;;;20.50;38.30;;;;;;693609;28;1264;-80
2021/12/04 01:45:27;;;;;;;;;;;20.50;38.30;;;;;;694049;28;910;-81
2021/12/04 01:45:48;;;;;;;;;;;20.40;38.20;;;;;;691485;28;1183;-80
2021/12/04 01:46:09;;;;;;;;;;;20.40;38.20;;;;;;688578;28;1388;-81
2021/12/04 01:46:30;;;;;;;;;;;20.40;38.30;;;;;;688683;28;835;-80
2021/12/04 01:46:55;;;;;;;;;;;20.40;38.30;;;;;;689062;28;870;-81
2021/12/04 01:47:19;;;;;;;;;;;20.50;38.30;;;;;;691251;28;847;-81
2021/12/04 01:47:41;;;;;;;;;;;20.40;38.30;;;;;;692495;28;1467;-81
2021/12/04 01:48:02;;;;;;;;;;;20.40;38.30;;;;;;694140;28;886;-80
2021/12/04 01:48:22;;;;;;;;;;;20.40;38.30;;;;;;694061;28;885;-81
2021/12/04 01:48:43;;;;;;;;;;;20.50;38.40;;;;;;694006;28;949;-81
2021/12/04 01:49:07;;;;;;;;;;;20.50;38.30;;;;;;694057;28;905;-81
2021/12/04 01:49:27;;;;;;;;;;;20.50;38.30;;;;;;695031;28;929;-80
2021/12/04 01:49:49;;;;;;;;;;;20.40;38.30;;;;;;696924;28;809;-81
2021/12/04 01:50:10;;;;;;;;;;;20.50;38.30;;;;;;697025;28;825;-81
2021/12/04 01:50:31;;;;;;;;;;;20.40;38.20;;;;;;697091;28;822;-81
2021/12/04 01:50:55;;;;;;;;;;;20.40;38.10;;;;;;696999;28;981;-80
2021/12/04 01:51:16;;;;;;;;;;;20.40;38.20;;;;;;696852;28;893;-81
2021/12/04 01:51:37;;;;;;;;;;;20.40;38.30;;;;;;697120;28;794;-81
2021/12/04 01:51:57;;;;;;;;;;;20.40;38.40;;;;;;693902;28;1444;-80
2021/12/04 01:52:18;;;;;;;;;;;20.40;38.50;;;;;;694002;28;854;-80
2021/12/04 01:52:39;;;;;;;;;;;20.40;38.40;;;;;;694071;28;1280;-81
2021/12/04 01:53:01;;;;;;;;;;;20.40;38.40;;;;;;693977;28;771;-79
2021/12/04 01:53:22;;;;;;;;;;;20.40;38.50;;;;;;694023;28;778;-79
2021/12/04 01:53:42;;;;;;;;;;;20.40;38.50;;;;;;694041;28;838;-81
2021/12/04 01:54:03;;;;;;;;;;;20.40;38.60;;;;;;694100;28;787;-80
2021/12/04 01:54:24;;;;;;;;;;;20.40;38.60;;;;;;694657;28;858;-80
2021/12/04 01:54:46;;;;;;;;;;;20.40;38.60;;;;;;696995;28;914;-80
2021/12/04 01:55:08;;;;;;;;;;;20.40;38.60;;;;;;697013;28;807;-80
2021/12/04 01:55:30;;;;;;;;;;;20.40;38.60;;;;;;696942;28;877;-81
2021/12/04 01:55:52;;;;;;;;;;;20.40;38.60;;;;;;693807;28;1828;-79
2021/12/04 01:56:12;;;;;;;;;;;20.40;38.60;;;;;;694020;28;834;-81
2021/12/04 01:56:36;;;;;;;;;;;20.40;38.60;;;;;;694023;28;1420;-81
2021/12/04 01:56:56;;;;;;;;;;;20.40;38.60;;;;;;693977;28;806;-80
2021/12/04 01:57:19;;;;;;;;;;;20.40;38.60;;;;;;693983;28;892;-80
2021/12/04 01:57:39;;;;;;;;;;;20.40;38.60;;;;;;695273;28;857;-81
2021/12/04 01:58:01;;;;;;;;;;;20.40;38.60;;;;;;696957;28;841;-83
2021/12/04 01:58:22;;;;;;;;;;;20.40;38.60;;;;;;696798;28;923;-84
2021/12/04 01:58:43;;;;;;;;;;;20.40;38.60;;;;;;697012;28;818;-82
2021/12/04 01:59:04;;;;;;;;;;;20.40;38.60;;;;;;694026;28;1232;-83
2021/12/04 01:59:24;;;;;;;;;;;20.40;38.60;;;;;;693990;28;779;-83
2021/12/04 01:59:45;;;;;;;;;;;20.40;38.50;;;;;;693913;28;829;-81
2021/12/04 02:00:06;;;;;;;;;;;20.40;38.60;;;;;;694071;28;1953;-80
2021/12/04 02:00:28;;;;;;;;;;;20.40;38.50;;;;;;694030;28;873;-80
2021/12/04 02:00:48;;;;;;;;;;;20.40;38.60;;;;;;694517;28;787;-81
2021/12/04 02:01:10;;;;;;;;;;;20.40;38.60;;;;;;697044;28;846;-80
2021/12/04 02:01:31;;;;;;;;;;;20.40;38.60;;;;;;696943;28;962;-80
2021/12/04 02:01:52;;;;;;;;;;;20.40;39.60;;;;;;693811;28;1105;-80
2021/12/04 02:02:12;;;;;;;;;;;20.40;38.60;;;;;;693966;28;775;-80
2021/12/04 02:02:33;;;;;;;;;;;20.40;38.40;;;;;;694065;28;937;-81
2021/12/04 02:02:54;;;;;;;;;;;20.40;38.50;;;;;;694036;28;755;-81
2021/12/04 02:03:14;;;;;;;;;;;20.40;38.40;;;;;;693946;28;865;-80
2021/12/04 02:03:35;;;;;;;;;;;20.40;38.50;;;;;;694157;28;1511;-86
2021/12/04 02:03:56;;;;;;;;;;;20.40;39.60;;;;;;693933;28;783;-79
2021/12/04 02:04:16;;;;;;;;;;;20.40;38.50;;;;;;693990;28;929;-81
2021/12/04 02:04:37;;;;;;;;;;;20.40;38.50;;;;;;694026;28;849;-80
2021/12/04 02:04:57;;;;;;;;;;;20.40;38.50;;;;;;693972;28;783;-80
2021/12/04 02:05:18;;;;;;;;;;;20.40;38.40;;;;;;693466;28;879;-80
2021/12/04 02:05:39;;;;;;;;;;;20.40;38.50;;;;;;694128;28;779;-80
2021/12/04 02:05:59;;;;;;;;;;;20.40;38.40;;;;;;693946;28;933;-80
2021/12/04 02:06:20;;;;;;;;;;;20.40;38.40;;;;;;694017;28;783;-80
2021/12/04 02:06:41;;;;;;;;;;;20.40;38.40;;;;;;693980;28;878;-82
2021/12/04 02:07:04;;;;;;;;;;;20.40;38.30;;;;;;694491;28;791;-80
2021/12/04 02:07:24;;;;;;;;;;;20.40;38.40;;;;;;696847;28;822;-81
2021/12/04 02:07:48;;;;;;;;;;;20.40;38.30;;;;;;696960;28;810;-79
2021/12/04 02:08:09;;;;;;;;;;;20.40;38.30;;;;;;696985;28;944;-82
2021/12/04 02:08:30;;;;;;;;;;;20.40;38.30;;;;;;696842;28;790;-81
2021/12/04 02:08:51;;;;;;;;;;;20.40;38.30;;;;;;696874;28;881;-81
2021/12/04 02:09:12;;;;;;;;;;;20.40;38.20;;;;;;693892;28;1355;-86
2021/12/04 02:09:33;;;;;;;;;;;20.40;38.10;;;;;;694049;28;1044;-80
2021/12/04 02:09:53;;;;;;;;;;;20.40;38.20;;;;;;693982;28;790;-80
2021/12/04 02:10:14;;;;;;;;;;;20.40;38.10;;;;;;693889;28;906;-78
2021/12/04 02:10:35;;;;;;;;;;;20.40;38.00;;;;;;694035;28;1394;-79
2021/12/04 02:10:57;;;;;;;;;;;20.40;38.10;;;;;;693933;28;1347;-79
2021/12/04 02:11:18;;;;;;;;;;;20.50;38.10;;;;;;693930;28;881;-78
2021/12/04 02:11:39;;;;;;;;;;;20.50;38.10;;;;;;694094;28;858;-78
2021/12/04 02:11:59;;;;;;;;;;;20.40;37.90;;;;;;694092;28;898;-79
2021/12/04 02:12:20;;;;;;;;;;;20.50;38.00;;;;;;693943;28;811;-79
2021/12/04 02:12:40;;;;;;;;;;;20.50;37.90;;;;;;694061;28;850;-78
2021/12/04 02:13:02;;;;;;;;;;;20.40;37.80;;;;;;694407;28;833;-79
2021/12/04 02:13:23;;;;;;;;;;;20.50;38.00;;;;;;696844;28;815;-80
2021/12/04 02:13:44;;;;;;;;;;;20.50;37.90;;;;;;696876;28;834;-79
2021/12/04 02:14:06;;;;;;;;;;;20.50;37.80;;;;;;696994;28;767;-80
2021/12/04 02:14:26;;;;;;;;;;;20.50;37.90;;;;;;696775;28;803;-79
2021/12/04 02:14:47;;;;;;;;;;;20.40;37.80;;;;;;696951;28;782;-80
2021/12/04 02:15:11;;;;;;;;;;;20.50;37.80;;;;;;696987;28;791;-80
2021/12/04 02:15:31;;;;;;;;;;;20.50;37.80;;;;;;696951;28;775;-80
2021/12/04 02:15:53;;;;;;;;;;;20.50;37.70;;;;;;696883;28;873;-86
2021/12/04 02:16:17;;;;;;;;;;;20.50;37.70;;;;;;696965;28;849;-80
2021/12/04 02:16:38;;;;;;;;;;;20.50;37.70;;;;;;693859;28;1200;-80
2021/12/04 02:16:59;;;;;;;;;;;20.50;37.70;;;;;;693882;28;898;-79
2021/12/04 02:17:19;;;;;;;;;;;20.50;37.60;;;;;;693967;28;802;-80
2021/12/04 02:17:40;;;;;;;;;;;20.50;37.60;;;;;;693997;28;842;-83
2021/12/04 02:18:03;;;;;;;;;;;20.50;38.60;;;;;;694113;28;791;-80
2021/12/04 02:18:24;;;;;;;;;;;20.50;37.60;;;;;;694583;28;865;-80
2021/12/04 02:18:44;;;;;;;;;;;20.50;37.50;;;;;;693730;28;928;-80
2021/12/04 02:19:05;;;;;;;;;;;20.50;37.50;;;;;;694017;28;783;-80
2021/12/04 02:19:26;;;;;;;;;;;20.50;37.50;;;;;;693825;28;953;-82
2021/12/04 02:19:47;;;;;;;;;;;20.50;37.50;;;;;;693935;28;854;-80
2021/12/04 02:20:09;;;;;;;;;;;20.50;38.60;;;;;;694059;28;1965;-81
2021/12/04 02:20:32;;;;;;;;;;;20.50;37.50;;;;;;694498;28;886;-80
2021/12/04 02:20:53;;;;;;;;;;;20.50;37.40;;;;;;696748;28;822;-79
2021/12/04 02:21:14;;;;;;;;;;;20.50;37.50;;;;;;696826;28;834;-80